sensor_id;sensor_type;location;lat;lon;timestamp;temperature;humidity
21035;DHT22;10676;50.848;3.272;2023-07-13T00:00:26;16.10;99.90
21035;DHT22;10676;50.848;3.272;2023-07-13T00:02:51;16.10;99.90
21035;DHT22;10676;50.848;3.272;2023-07-13T00:05:21;16.10;99.90
21035;DHT22;10676;50.848;3.272;2023-07-13T00:07:47;16.10;99.90
21035;DHT22;10676;50.848;3.272;2023-07-13T00:10:13;16.10;99.90
21035;DHT22;10676;50.848;3.272;2023-07-13T00:12:39;16.00;99.90
21035;DHT22;10676;50.848;3.272;2023-07-13T00:15:15;16.10;99.90
21035;DHT22;10676;50.848;3.272;2023-07-13T00:17:42;16.00;99.90
21035;DHT22;10676;50.848;3.272;2023-07-13T00:20:12;16.00;99.90
21035;DHT22;10676;50.848;3.272;2023-07-13T00:22:37;16.00;99.90
21035;DHT22;10676;50.848;3.272;2023-07-13T00:25:05;16.00;99.90
21035;DHT22;10676;50.848;3.272;2023-07-13T00:27:31;16.00;99.90
21035;DHT22;10676;50.848;3.272;2023-07-13T00:29:58;15.90;99.90
21035;DHT22;10676;50.848;3.272;2023-07-13T00:32:24;15.90;99.90
21035;DHT22;10676;50.848;3.272;2023-07-13T00:34:52;15.90;99.90
21035;DHT22;10676;50.848;3.272;2023-07-13T00:37:18;15.90;99.90
21035;DHT22;10676;50.848;3.272;2023-07-13T00:39:44;15.90;99.90
21035;DHT22;10676;50.848;3.272;2023-07-13T00:42:12;15.90;99.90
21035;DHT22;10676;50.848;3.272;2023-07-13T00:44:38;15.80;99.90
21035;DHT22;10676;50.848;3.272;2023-07-13T00:47:05;15.80;99.90
21035;DHT22;10676;50.848;3.272;2023-07-13T00:49:32;15.80;99.90
21035;DHT22;10676;50.848;3.272;2023-07-13T00:52:04;15.80;99.90
21035;DHT22;10676;50.848;3.272;2023-07-13T00:54:38;15.80;99.90
21035;DHT22;10676;50.848;3.272;2023-07-13T00:57:08;15.80;99.90
21035;DHT22;10676;50.848;3.272;2023-07-13T00:59:36;15.80;99.90
21035;DHT22;10676;50.848;3.272;2023-07-13T01:02:04;15.80;99.90
21035;DHT22;10676;50.848;3.272;2023-07-13T01:04:29;15.80;99.90
21035;DHT22;10676;50.848;3.272;2023-07-13T01:06:56;15.80;99.90
21035;DHT22;10676;50.848;3.272;2023-07-13T01:09:22;15.70;99.90
21035;DHT22;10676;50.848;3.272;2023-07-13T01:11:49;15.80;99.90
21035;DHT22;10676;50.848;3.272;2023-07-13T01:14:15;15.80;99.90
21035;DHT22;10676;50.848;3.272;2023-07-13T01:16:42;15.70;99.90
21035;DHT22;10676;50.848;3.272;2023-07-13T01:21:55;15.70;99.90
21035;DHT22;10676;50.848;3.272;2023-07-13T01:24:22;15.70;99.90
21035;DHT22;10676;50.848;3.272;2023-07-13T01:26:47;15.70;99.90
21035;DHT22;10676;50.848;3.272;2023-07-13T01:29:22;15.70;99.90
21035;DHT22;10676;50.848;3.272;2023-07-13T01:31:47;15.70;99.90
21035;DHT22;10676;50.848;3.272;2023-07-13T01:34:13;15.70;99.90
21035;DHT22;10676;50.848;3.272;2023-07-13T01:36:41;15.70;99.90
21035;DHT22;10676;50.848;3.272;2023-07-13T01:39:06;15.70;99.90
21035;DHT22;10676;50.848;3.272;2023-07-13T01:41:32;15.60;99.90
21035;DHT22;10676;50.848;3.272;2023-07-13T01:43:58;15.60;99.90
21035;DHT22;10676;50.848;3.272;2023-07-13T01:46:23;15.60;99.90
21035;DHT22;10676;50.848;3.272;2023-07-13T01:48:49;15.60;99.90
21035;DHT22;10676;50.848;3.272;2023-07-13T01:51:16;15.60;99.90
21035;DHT22;10676;50.848;3.272;2023-07-13T01:53:42;15.50;99.90
21035;DHT22;10676;50.848;3.272;2023-07-13T01:56:08;15.60;99.90
21035;DHT22;10676;50.848;3.272;2023-07-13T01:58:33;15.50;99.90
21035;DHT22;10676;50.848;3.272;2023-07-13T02:00:59;15.50;99.90
21035;DHT22;10676;50.848;3.272;2023-07-13T02:03:26;15.50;99.90
21035;DHT22;10676;50.848;3.272;2023-07-13T02:05:51;15.50;99.90
21035;DHT22;10676;50.848;3.272;2023-07-13T02:08:24;15.50;99.90
21035;DHT22;10676;50.848;3.272;2023-07-13T02:10:50;15.40;99.90
21035;DHT22;10676;50.848;3.272;2023-07-13T02:13:15;15.40;99.90
21035;DHT22;10676;50.848;3.272;2023-07-13T02:15:43;15.40;99.90
21035;DHT22;10676;50.848;3.272;2023-07-13T02:18:09;15.40;99.90
21035;DHT22;10676;50.848;3.272;2023-07-13T02:20:35;15.30;99.90
21035;DHT22;10676;50.848;3.272;2023-07-13T02:23:00;15.30;99.90
21035;DHT22;10676;50.848;3.272;2023-07-13T02:25:27;15.40;99.90
21035;DHT22;10676;50.848;3.272;2023-07-13T02:27:53;15.40;99.90
21035;DHT22;10676;50.848;3.272;2023-07-13T02:30:19;15.40;99.90
21035;DHT22;10676;50.848;3.272;2023-07-13T02:32:45;15.30;99.90
21035;DHT22;10676;50.848;3.272;2023-07-13T02:35:11;15.30;99.90
21035;DHT22;10676;50.848;3.272;2023-07-13T02:37:36;15.30;99.90
21035;DHT22;10676;50.848;3.272;2023-07-13T02:40:02;15.30;99.90
21035;DHT22;10676;50.848;3.272;2023-07-13T02:42:34;15.20;99.90
21035;DHT22;10676;50.848;3.272;2023-07-13T02:44:59;15.20;99.90
21035;DHT22;10676;50.848;3.272;2023-07-13T02:47:25;15.10;99.90
21035;DHT22;10676;50.848;3.272;2023-07-13T02:49:52;15.10;99.90
21035;DHT22;10676;50.848;3.272;2023-07-13T02:52:18;15.10;99.90
21035;DHT22;10676;50.848;3.272;2023-07-13T02:54:43;15.10;99.90
21035;DHT22;10676;50.848;3.272;2023-07-13T02:57:09;15.00;99.90
21035;DHT22;10676;50.848;3.272;2023-07-13T02:59:40;15.00;99.90
21035;DHT22;10676;50.848;3.272;2023-07-13T03:02:06;15.00;99.90
21035;DHT22;10676;50.848;3.272;2023-07-13T03:04:31;15.00;99.90
21035;DHT22;10676;50.848;3.272;2023-07-13T03:06:57;15.00;99.90
21035;DHT22;10676;50.848;3.272;2023-07-13T03:09:34;15.00;99.90
21035;DHT22;10676;50.848;3.272;2023-07-13T03:12:00;15.00;99.90
21035;DHT22;10676;50.848;3.272;2023-07-13T03:14:26;15.00;99.90
21035;DHT22;10676;50.848;3.272;2023-07-13T03:16:51;15.00;99.90
21035;DHT22;10676;50.848;3.272;2023-07-13T03:19:18;14.90;99.90
21035;DHT22;10676;50.848;3.272;2023-07-13T03:21:44;14.90;99.90
21035;DHT22;10676;50.848;3.272;2023-07-13T03:24:10;14.90;99.90
21035;DHT22;10676;50.848;3.272;2023-07-13T03:26:36;14.90;99.90
21035;DHT22;10676;50.848;3.272;2023-07-13T03:29:01;14.90;99.90
21035;DHT22;10676;50.848;3.272;2023-07-13T03:31:32;14.90;99.90
21035;DHT22;10676;50.848;3.272;2023-07-13T03:33:59;14.90;99.90
21035;DHT22;10676;50.848;3.272;2023-07-13T03:36:27;14.90;99.90
21035;DHT22;10676;50.848;3.272;2023-07-13T03:38:56;14.90;99.90
21035;DHT22;10676;50.848;3.272;2023-07-13T03:41:22;14.90;99.90
21035;DHT22;10676;50.848;3.272;2023-07-13T03:43:49;15.00;99.90
21035;DHT22;10676;50.848;3.272;2023-07-13T03:46:15;15.00;99.90
21035;DHT22;10676;50.848;3.272;2023-07-13T03:48:43;15.00;99.90
21035;DHT22;10676;50.848;3.272;2023-07-13T03:51:10;15.10;99.90
21035;DHT22;10676;50.848;3.272;2023-07-13T03:53:41;15.20;99.90
21035;DHT22;10676;50.848;3.272;2023-07-13T03:56:07;15.30;99.90
21035;DHT22;10676;50.848;3.272;2023-07-13T03:58:36;15.30;99.90
21035;DHT22;10676;50.848;3.272;2023-07-13T04:01:03;15.40;99.90
21035;DHT22;10676;50.848;3.272;2023-07-13T04:03:32;15.50;99.90
21035;DHT22;10676;50.848;3.272;2023-07-13T04:06:02;15.60;99.90
21035;DHT22;10676;50.848;3.272;2023-07-13T04:08:30;15.70;99.90
21035;DHT22;10676;50.848;3.272;2023-07-13T04:10:56;15.80;99.90
21035;DHT22;10676;50.848;3.272;2023-07-13T04:13:23;15.90;99.90
21035;DHT22;10676;50.848;3.272;2023-07-13T04:15:49;15.90;99.90
21035;DHT22;10676;50.848;3.272;2023-07-13T04:18:16;16.00;99.90
21035;DHT22;10676;50.848;3.272;2023-07-13T04:20:42;16.10;99.90
21035;DHT22;10676;50.848;3.272;2023-07-13T04:23:07;16.10;99.90
21035;DHT22;10676;50.848;3.272;2023-07-13T04:25:33;16.20;99.90
21035;DHT22;10676;50.848;3.272;2023-07-13T04:28:00;16.20;99.90
21035;DHT22;10676;50.848;3.272;2023-07-13T04:30:26;16.30;99.90
21035;DHT22;10676;50.848;3.272;2023-07-13T04:32:52;16.40;99.90
21035;DHT22;10676;50.848;3.272;2023-07-13T04:35:19;16.40;99.90
21035;DHT22;10676;50.848;3.272;2023-07-13T04:37:48;16.50;99.90
21035;DHT22;10676;50.848;3.272;2023-07-13T04:40:19;16.50;99.90
21035;DHT22;10676;50.848;3.272;2023-07-13T04:42:51;16.60;99.90
21035;DHT22;10676;50.848;3.272;2023-07-13T04:45:20;16.70;99.90
21035;DHT22;10676;50.848;3.272;2023-07-13T04:47:46;16.70;99.90
21035;DHT22;10676;50.848;3.272;2023-07-13T04:50:20;16.80;99.90
21035;DHT22;10676;50.848;3.272;2023-07-13T04:52:51;16.80;99.90
21035;DHT22;10676;50.848;3.272;2023-07-13T04:55:20;16.90;99.90
21035;DHT22;10676;50.848;3.272;2023-07-13T04:57:46;17.00;99.90
21035;DHT22;10676;50.848;3.272;2023-07-13T05:00:13;17.00;99.90
21035;DHT22;10676;50.848;3.272;2023-07-13T05:02:43;17.10;99.90
21035;DHT22;10676;50.848;3.272;2023-07-13T05:05:08;17.10;99.90
21035;DHT22;10676;50.848;3.272;2023-07-13T05:07:34;17.20;99.90
21035;DHT22;10676;50.848;3.272;2023-07-13T05:10:01;17.20;99.90
21035;DHT22;10676;50.848;3.272;2023-07-13T05:12:27;17.30;99.90
21035;DHT22;10676;50.848;3.272;2023-07-13T05:14:59;17.40;99.90
21035;DHT22;10676;50.848;3.272;2023-07-13T05:17:24;17.40;99.90
21035;DHT22;10676;50.848;3.272;2023-07-13T05:19:50;17.50;99.90
21035;DHT22;10676;50.848;3.272;2023-07-13T05:22:16;17.50;99.90
21035;DHT22;10676;50.848;3.272;2023-07-13T05:24:41;17.60;99.90
21035;DHT22;10676;50.848;3.272;2023-07-13T05:27:07;17.70;99.90
21035;DHT22;10676;50.848;3.272;2023-07-13T05:29:33;17.70;99.90
21035;DHT22;10676;50.848;3.272;2023-07-13T05:31:59;17.80;99.90
21035;DHT22;10676;50.848;3.272;2023-07-13T05:34:25;17.80;99.90
21035;DHT22;10676;50.848;3.272;2023-07-13T05:36:51;17.80;99.90
21035;DHT22;10676;50.848;3.272;2023-07-13T05:39:18;17.90;99.90
21035;DHT22;10676;50.848;3.272;2023-07-13T05:41:44;18.00;99.90
21035;DHT22;10676;50.848;3.272;2023-07-13T05:44:10;18.00;99.90
21035;DHT22;10676;50.848;3.272;2023-07-13T05:46:38;18.10;99.90
21035;DHT22;10676;50.848;3.272;2023-07-13T05:49:04;18.10;99.90
21035;DHT22;10676;50.848;3.272;2023-07-13T05:51:31;18.20;99.90
21035;DHT22;10676;50.848;3.272;2023-07-13T05:53:56;18.30;99.90
21035;DHT22;10676;50.848;3.272;2023-07-13T05:56:23;18.30;99.90
21035;DHT22;10676;50.848;3.272;2023-07-13T05:58:52;18.30;99.90
21035;DHT22;10676;50.848;3.272;2023-07-13T06:01:18;18.40;99.90
21035;DHT22;10676;50.848;3.272;2023-07-13T06:03:46;18.50;99.90
21035;DHT22;10676;50.848;3.272;2023-07-13T06:06:16;18.60;99.90
21035;DHT22;10676;50.848;3.272;2023-07-13T06:08:42;18.80;99.90
21035;DHT22;10676;50.848;3.272;2023-07-13T06:11:22;18.90;99.90
21035;DHT22;10676;50.848;3.272;2023-07-13T06:13:48;19.00;99.90
21035;DHT22;10676;50.848;3.272;2023-07-13T06:16:15;19.10;99.90
21035;DHT22;10676;50.848;3.272;2023-07-13T06:18:42;19.20;99.90
21035;DHT22;10676;50.848;3.272;2023-07-13T06:21:09;19.30;99.90
21035;DHT22;10676;50.848;3.272;2023-07-13T06:23:35;19.40;99.90
21035;DHT22;10676;50.848;3.272;2023-07-13T06:26:02;19.50;99.90
21035;DHT22;10676;50.848;3.272;2023-07-13T06:28:29;19.60;99.90
21035;DHT22;10676;50.848;3.272;2023-07-13T06:30:55;19.70;99.90
21035;DHT22;10676;50.848;3.272;2023-07-13T06:33:24;19.70;99.90
21035;DHT22;10676;50.848;3.272;2023-07-13T06:35:50;19.80;99.90
21035;DHT22;10676;50.848;3.272;2023-07-13T06:38:16;19.90;99.90
21035;DHT22;10676;50.848;3.272;2023-07-13T06:40:42;20.20;99.90
21035;DHT22;10676;50.848;3.272;2023-07-13T06:43:08;20.30;99.90
21035;DHT22;10676;50.848;3.272;2023-07-13T06:45:54;20.50;99.90
21035;DHT22;10676;50.848;3.272;2023-07-13T06:48:20;20.60;99.90
21035;DHT22;10676;50.848;3.272;2023-07-13T06:50:47;20.70;99.90
21035;DHT22;10676;50.848;3.272;2023-07-13T06:53:13;20.70;99.90
21035;DHT22;10676;50.848;3.272;2023-07-13T06:55:39;20.80;99.90
21035;DHT22;10676;50.848;3.272;2023-07-13T06:58:05;20.80;99.90
21035;DHT22;10676;50.848;3.272;2023-07-13T07:00:31;20.90;99.90
21035;DHT22;10676;50.848;3.272;2023-07-13T07:02:57;21.00;99.90
21035;DHT22;10676;50.848;3.272;2023-07-13T07:05:23;21.10;99.90
21035;DHT22;10676;50.848;3.272;2023-07-13T07:07:52;21.40;99.90
21035;DHT22;10676;50.848;3.272;2023-07-13T07:10:18;21.70;99.90
21035;DHT22;10676;50.848;3.272;2023-07-13T07:12:44;22.00;99.90
21035;DHT22;10676;50.848;3.272;2023-07-13T07:15:20;22.40;99.90
21035;DHT22;10676;50.848;3.272;2023-07-13T07:17:46;23.00;99.90
21035;DHT22;10676;50.848;3.272;2023-07-13T07:20:12;23.50;99.90
21035;DHT22;10676;50.848;3.272;2023-07-13T07:22:38;24.00;99.90
21035;DHT22;10676;50.848;3.272;2023-07-13T07:25:05;24.50;99.90
21035;DHT22;10676;50.848;3.272;2023-07-13T07:27:31;24.80;99.90
21035;DHT22;10676;50.848;3.272;2023-07-13T07:29:57;25.10;99.90
21035;DHT22;10676;50.848;3.272;2023-07-13T07:32:28;25.30;99.90
21035;DHT22;10676;50.848;3.272;2023-07-13T07:34:54;25.40;99.90
21035;DHT22;10676;50.848;3.272;2023-07-13T07:37:19;25.50;99.90
21035;DHT22;10676;50.848;3.272;2023-07-13T07:39:45;25.70;99.90
21035;DHT22;10676;50.848;3.272;2023-07-13T07:42:11;26.00;99.90
21035;DHT22;10676;50.848;3.272;2023-07-13T07:44:38;26.20;99.90
21035;DHT22;10676;50.848;3.272;2023-07-13T07:47:04;26.30;99.90
21035;DHT22;10676;50.848;3.272;2023-07-13T07:49:29;26.10;99.90
21035;DHT22;10676;50.848;3.272;2023-07-13T07:51:55;26.00;99.90
21035;DHT22;10676;50.848;3.272;2023-07-13T07:54:21;25.90;99.90
21035;DHT22;10676;50.848;3.272;2023-07-13T07:56:46;25.80;99.90
21035;DHT22;10676;50.848;3.272;2023-07-13T07:59:12;25.70;99.90
21035;DHT22;10676;50.848;3.272;2023-07-13T08:01:37;25.80;99.90
21035;DHT22;10676;50.848;3.272;2023-07-13T08:04:03;25.80;99.90
21035;DHT22;10676;50.848;3.272;2023-07-13T08:06:29;25.80;99.90
21035;DHT22;10676;50.848;3.272;2023-07-13T08:08:59;25.90;99.90
21035;DHT22;10676;50.848;3.272;2023-07-13T08:11:24;26.20;99.90
21035;DHT22;10676;50.848;3.272;2023-07-13T08:13:50;26.30;99.90
21035;DHT22;10676;50.848;3.272;2023-07-13T08:16:16;26.40;99.90
21035;DHT22;10676;50.848;3.272;2023-07-13T08:18:42;26.50;99.90
21035;DHT22;10676;50.848;3.272;2023-07-13T08:21:09;26.40;99.90
21035;DHT22;10676;50.848;3.272;2023-07-13T08:23:36;26.40;99.90
21035;DHT22;10676;50.848;3.272;2023-07-13T08:26:02;26.50;99.90
21035;DHT22;10676;50.848;3.272;2023-07-13T08:28:28;26.50;99.90
21035;DHT22;10676;50.848;3.272;2023-07-13T08:30:54;26.60;99.90
21035;DHT22;10676;50.848;3.272;2023-07-13T08:33:21;26.80;99.90
21035;DHT22;10676;50.848;3.272;2023-07-13T08:35:49;27.00;99.90
21035;DHT22;10676;50.848;3.272;2023-07-13T08:38:16;27.00;99.90
21035;DHT22;10676;50.848;3.272;2023-07-13T08:40:42;26.90;99.90
21035;DHT22;10676;50.848;3.272;2023-07-13T08:43:20;26.80;99.90
21035;DHT22;10676;50.848;3.272;2023-07-13T08:48:32;26.60;99.90
21035;DHT22;10676;50.848;3.272;2023-07-13T08:51:09;26.60;99.90
21035;DHT22;10676;50.848;3.272;2023-07-13T08:53:42;26.50;99.90
21035;DHT22;10676;50.848;3.272;2023-07-13T08:56:29;26.50;99.90
21035;DHT22;10676;50.848;3.272;2023-07-13T08:59:02;26.70;99.90
21035;DHT22;10676;50.848;3.272;2023-07-13T09:01:47;26.80;99.90
21035;DHT22;10676;50.848;3.272;2023-07-13T09:04:19;26.80;99.90
21035;DHT22;10676;50.848;3.272;2023-07-13T09:12:39;27.80;99.90
21035;DHT22;10676;50.848;3.272;2023-07-13T09:15:25;28.80;98.60
21035;DHT22;10676;50.848;3.272;2023-07-13T09:17:52;29.90;97.40
21035;DHT22;10676;50.848;3.272;2023-07-13T09:20:37;30.80;94.60
21035;DHT22;10676;50.848;3.272;2023-07-13T09:23:07;31.70;92.20
21035;DHT22;10676;50.848;3.272;2023-07-13T09:25:36;32.20;88.90
21035;DHT22;10676;50.848;3.272;2023-07-13T09:28:21;32.50;85.90
21035;DHT22;10676;50.848;3.272;2023-07-13T09:31:07;32.40;85.30
21035;DHT22;10676;50.848;3.272;2023-07-13T09:33:35;32.40;81.50
21035;DHT22;10676;50.848;3.272;2023-07-13T09:36:05;32.00;80.80
21035;DHT22;10676;50.848;3.272;2023-07-13T09:38:43;31.40;81.40
21035;DHT22;10676;50.848;3.272;2023-07-13T09:42:06;30.80;83.80
21035;DHT22;10676;50.848;3.272;2023-07-13T09:44:13;30.80;84.20
21035;DHT22;10676;50.848;3.272;2023-07-13T09:46:45;30.80;85.20
21035;DHT22;10676;50.848;3.272;2023-07-13T09:49:11;31.10;84.20
21035;DHT22;10676;50.848;3.272;2023-07-13T09:51:38;31.50;81.80
21035;DHT22;10676;50.848;3.272;2023-07-13T09:54:05;31.70;80.80
21035;DHT22;10676;50.848;3.272;2023-07-13T09:56:31;31.80;79.40
21035;DHT22;10676;50.848;3.272;2023-07-13T09:58:58;32.00;78.80
21035;DHT22;10676;50.848;3.272;2023-07-13T10:01:37;32.10;78.10
21035;DHT22;10676;50.848;3.272;2023-07-13T10:04:13;32.00;79.10
21035;DHT22;10676;50.848;3.272;2023-07-13T10:06:42;31.80;78.40
21035;DHT22;10676;50.848;3.272;2023-07-13T10:09:09;31.40;77.20
21035;DHT22;10676;50.848;3.272;2023-07-13T10:11:36;31.00;78.80
21035;DHT22;10676;50.848;3.272;2023-07-13T10:14:15;30.80;80.10
21035;DHT22;10676;50.848;3.272;2023-07-13T10:16:43;30.70;81.90
21035;DHT22;10676;50.848;3.272;2023-07-13T10:19:21;30.40;80.80
21035;DHT22;10676;50.848;3.272;2023-07-13T10:21:55;30.20;82.90
21035;DHT22;10676;50.848;3.272;2023-07-13T10:24:23;29.30;91.30
21035;DHT22;10676;50.848;3.272;2023-07-13T10:29:53;25.80;96.20
21035;DHT22;10676;50.848;3.272;2023-07-13T10:32:22;24.00;99.90
21035;DHT22;10676;50.848;3.272;2023-07-13T10:34:49;22.60;99.90
21035;DHT22;10676;50.848;3.272;2023-07-13T10:37:24;21.70;99.90
21035;DHT22;10676;50.848;3.272;2023-07-13T10:39:54;20.90;99.90
21035;DHT22;10676;50.848;3.272;2023-07-13T10:42:42;20.50;99.90
21035;DHT22;10676;50.848;3.272;2023-07-13T10:45:22;20.20;99.90
21035;DHT22;10676;50.848;3.272;2023-07-13T10:47:50;20.00;99.90
21035;DHT22;10676;50.848;3.272;2023-07-13T10:50:23;20.00;99.90
21035;DHT22;10676;50.848;3.272;2023-07-13T10:53:20;20.00;99.90
21035;DHT22;10676;50.848;3.272;2023-07-13T10:58:24;20.50;99.90
21035;DHT22;10676;50.848;3.272;2023-07-13T11:03:32;21.60;99.90
21035;DHT22;10676;50.848;3.272;2023-07-13T11:06:12;22.20;99.90
21035;DHT22;10676;50.848;3.272;2023-07-13T11:08:52;22.80;99.90
21035;DHT22;10676;50.848;3.272;2023-07-13T11:11:38;23.60;99.90
21035;DHT22;10676;50.848;3.272;2023-07-13T11:16:50;25.00;99.90
21035;DHT22;10676;50.848;3.272;2023-07-13T11:22:03;26.60;99.90
21035;DHT22;10676;50.848;3.272;2023-07-13T11:27:42;28.80;99.90
21035;DHT22;10676;50.848;3.272;2023-07-13T11:33:14;29.80;99.90
21035;DHT22;10676;50.848;3.272;2023-07-13T11:35:59;30.00;99.90
21035;DHT22;10676;50.848;3.272;2023-07-13T11:38:41;30.10;99.90
21035;DHT22;10676;50.848;3.272;2023-07-13T11:41:17;29.90;99.90
21035;DHT22;10676;50.848;3.272;2023-07-13T11:43:44;29.60;98.60
21035;DHT22;10676;50.848;3.272;2023-07-13T11:46:22;29.30;99.30
21035;DHT22;10676;50.848;3.272;2023-07-13T11:48:49;29.50;99.60
21035;DHT22;10676;50.848;3.272;2023-07-13T11:51:30;29.80;95.60
21035;DHT22;10676;50.848;3.272;2023-07-13T11:54:10;30.00;92.60
21035;DHT22;10676;50.848;3.272;2023-07-13T11:56:38;29.80;93.20
21035;DHT22;10676;50.848;3.272;2023-07-13T11:59:07;29.80;91.90
21035;DHT22;10676;50.848;3.272;2023-07-13T12:01:34;30.00;90.60
21035;DHT22;10676;50.848;3.272;2023-07-13T12:04:02;30.00;90.90
21035;DHT22;10676;50.848;3.272;2023-07-13T12:06:31;30.20;91.30
21035;DHT22;10676;50.848;3.272;2023-07-13T12:09:01;30.40;88.60
21035;DHT22;10676;50.848;3.272;2023-07-13T12:11:35;30.50;85.70
21035;DHT22;10676;50.848;3.272;2023-07-13T12:14:02;30.60;81.90
21035;DHT22;10676;50.848;3.272;2023-07-13T12:16:34;30.40;79.60
21035;DHT22;10676;50.848;3.272;2023-07-13T12:19:01;30.30;80.10
21035;DHT22;10676;50.848;3.272;2023-07-13T12:21:32;30.20;81.40
21035;DHT22;10676;50.848;3.272;2023-07-13T12:23:59;30.20;82.60
21035;DHT22;10676;50.848;3.272;2023-07-13T12:26:28;30.30;81.30
21035;DHT22;10676;50.848;3.272;2023-07-13T12:28:55;30.40;76.00
21035;DHT22;10676;50.848;3.272;2023-07-13T12:31:32;30.40;75.40
21035;DHT22;10676;50.848;3.272;2023-07-13T12:34:07;30.40;76.10
21035;DHT22;10676;50.848;3.272;2023-07-13T12:36:36;30.00;77.10
21035;DHT22;10676;50.848;3.272;2023-07-13T12:39:13;29.40;76.50
21035;DHT22;10676;50.848;3.272;2023-07-13T12:41:40;28.80;78.30
21035;DHT22;10676;50.848;3.272;2023-07-13T12:44:17;28.40;80.40
21035;DHT22;10676;50.848;3.272;2023-07-13T12:49:27;28.30;81.30
21035;DHT22;10676;50.848;3.272;2023-07-13T12:51:59;28.30;79.80
21035;DHT22;10676;50.848;3.272;2023-07-13T12:54:26;28.40;79.80
21035;DHT22;10676;50.848;3.272;2023-07-13T12:56:56;28.50;79.40
21035;DHT22;10676;50.848;3.272;2023-07-13T12:59:26;28.70;80.10
21035;DHT22;10676;50.848;3.272;2023-07-13T13:01:54;28.90;79.10
21035;DHT22;10676;50.848;3.272;2023-07-13T13:04:20;29.00;80.10
21035;DHT22;10676;50.848;3.272;2023-07-13T13:06:47;29.30;76.50
21035;DHT22;10676;50.848;3.272;2023-07-13T13:09:15;29.60;75.60
21035;DHT22;10676;50.848;3.272;2023-07-13T13:11:41;29.50;74.80
21035;DHT22;10676;50.848;3.272;2023-07-13T13:14:08;29.30;73.60
21035;DHT22;10676;50.848;3.272;2023-07-13T13:16:46;29.10;75.60
21035;DHT22;10676;50.848;3.272;2023-07-13T13:19:13;29.10;77.50
21035;DHT22;10676;50.848;3.272;2023-07-13T13:21:39;29.30;76.20
21035;DHT22;10676;50.848;3.272;2023-07-13T13:24:13;29.40;76.20
21035;DHT22;10676;50.848;3.272;2023-07-13T13:26:41;29.60;74.30
21035;DHT22;10676;50.848;3.272;2023-07-13T13:29:15;29.70;73.90
21035;DHT22;10676;50.848;3.272;2023-07-13T13:31:43;29.70;73.50
21035;DHT22;10676;50.848;3.272;2023-07-13T13:34:14;29.60;75.10
21035;DHT22;10676;50.848;3.272;2023-07-13T13:36:41;29.90;73.50
21035;DHT22;10676;50.848;3.272;2023-07-13T13:41:45;30.30;72.60
21035;DHT22;10676;50.848;3.272;2023-07-13T13:44:15;30.40;71.60
21035;DHT22;10676;50.848;3.272;2023-07-13T13:46:44;30.60;69.50
21035;DHT22;10676;50.848;3.272;2023-07-13T13:49:22;30.80;68.90
21035;DHT22;10676;50.848;3.272;2023-07-13T13:51:49;30.80;68.10
21035;DHT22;10676;50.848;3.272;2023-07-13T13:54:16;30.60;68.40
21035;DHT22;10676;50.848;3.272;2023-07-13T13:56:45;30.30;66.80
21035;DHT22;10676;50.848;3.272;2023-07-13T13:59:11;30.10;68.50
21035;DHT22;10676;50.848;3.272;2023-07-13T14:01:38;29.80;69.10
21035;DHT22;10676;50.848;3.272;2023-07-13T14:04:05;29.50;71.20
21035;DHT22;10676;50.848;3.272;2023-07-13T14:06:32;29.40;71.00
21035;DHT22;10676;50.848;3.272;2023-07-13T14:08:58;29.20;72.10
21035;DHT22;10676;50.848;3.272;2023-07-13T14:11:25;29.20;74.30
21035;DHT22;10676;50.848;3.272;2023-07-13T14:13:56;29.30;74.60
21035;DHT22;10676;50.848;3.272;2023-07-13T14:16:33;29.60;73.50
21035;DHT22;10676;50.848;3.272;2023-07-13T14:18:59;30.00;71.00
21035;DHT22;10676;50.848;3.272;2023-07-13T14:21:27;30.30;69.30
21035;DHT22;10676;50.848;3.272;2023-07-13T14:23:53;30.50;70.30
21035;DHT22;10676;50.848;3.272;2023-07-13T14:26:23;30.70;69.80
21035;DHT22;10676;50.848;3.272;2023-07-13T14:28:55;30.70;68.90
21035;DHT22;10676;50.848;3.272;2023-07-13T14:31:22;30.80;65.90
21035;DHT22;10676;50.848;3.272;2023-07-13T14:33:48;30.70;66.40
21035;DHT22;10676;50.848;3.272;2023-07-13T14:36:36;30.70;68.20
21035;DHT22;10676;50.848;3.272;2023-07-13T14:39:15;30.80;68.20
21035;DHT22;10676;50.848;3.272;2023-07-13T14:41:42;31.10;66.30
21035;DHT22;10676;50.848;3.272;2023-07-13T14:44:16;31.20;63.70
21035;DHT22;10676;50.848;3.272;2023-07-13T14:46:43;31.30;62.60
21035;DHT22;10676;50.848;3.272;2023-07-13T14:49:20;31.20;62.30
21035;DHT22;10676;50.848;3.272;2023-07-13T14:51:47;31.30;61.30
21035;DHT22;10676;50.848;3.272;2023-07-13T14:54:13;31.30;61.90
21035;DHT22;10676;50.848;3.272;2023-07-13T14:56:39;31.20;62.30
21035;DHT22;10676;50.848;3.272;2023-07-13T14:59:05;31.10;62.70
21035;DHT22;10676;50.848;3.272;2023-07-13T15:01:34;30.80;63.30
21035;DHT22;10676;50.848;3.272;2023-07-13T15:04:00;30.50;64.40
21035;DHT22;10676;50.848;3.272;2023-07-13T15:06:59;30.10;65.30
21035;DHT22;10676;50.848;3.272;2023-07-13T15:09:26;29.70;67.10
21035;DHT22;10676;50.848;3.272;2023-07-13T15:11:53;29.50;67.20
21035;DHT22;10676;50.848;3.272;2023-07-13T15:14:20;29.40;67.70
21035;DHT22;10676;50.848;3.272;2023-07-13T15:16:48;29.30;68.00
21035;DHT22;10676;50.848;3.272;2023-07-13T15:19:16;29.20;68.20
21035;DHT22;10676;50.848;3.272;2023-07-13T15:21:42;29.20;68.00
21035;DHT22;10676;50.848;3.272;2023-07-13T15:24:10;29.20;68.20
21035;DHT22;10676;50.848;3.272;2023-07-13T15:26:36;29.30;69.40
21035;DHT22;10676;50.848;3.272;2023-07-13T15:29:04;29.50;69.20
21035;DHT22;10676;50.848;3.272;2023-07-13T15:31:32;29.70;67.60
21035;DHT22;10676;50.848;3.272;2023-07-13T15:34:00;29.80;67.10
21035;DHT22;10676;50.848;3.272;2023-07-13T15:36:31;29.90;68.10
21035;DHT22;10676;50.848;3.272;2023-07-13T15:38:56;30.10;66.90
21035;DHT22;10676;50.848;3.272;2023-07-13T15:41:27;30.00;65.90
21035;DHT22;10676;50.848;3.272;2023-07-13T15:43:57;29.80;65.20
21035;DHT22;10676;50.848;3.272;2023-07-13T15:46:28;29.40;65.20
21035;DHT22;10676;50.848;3.272;2023-07-13T15:48:58;28.90;66.70
21035;DHT22;10676;50.848;3.272;2023-07-13T15:51:29;28.50;67.30
21035;DHT22;10676;50.848;3.272;2023-07-13T15:53:59;28.30;69.10
21035;DHT22;10676;50.848;3.272;2023-07-13T15:56:31;28.40;67.80
21035;DHT22;10676;50.848;3.272;2023-07-13T15:58:59;28.50;66.90
21035;DHT22;10676;50.848;3.272;2023-07-13T16:01:26;28.60;67.70
21035;DHT22;10676;50.848;3.272;2023-07-13T16:04:10;28.70;66.70
21035;DHT22;10676;50.848;3.272;2023-07-13T16:06:39;28.80;66.40
21035;DHT22;10676;50.848;3.272;2023-07-13T16:09:32;28.90;66.80
21035;DHT22;10676;50.848;3.272;2023-07-13T16:11:57;28.80;67.40
21035;DHT22;10676;50.848;3.272;2023-07-13T16:14:23;28.50;67.90
21035;DHT22;10676;50.848;3.272;2023-07-13T16:16:50;28.20;69.50